Alvin, TX

1:45 PM CDT on October 21, 2014 (GMT -0500)
Ellington | Change Station
CLOSE
Current Station
Airport
Location: Ellington Field,
Elevation: 33 ft
Nearby Weather Stations

Elev 33 ft 29.61 °N, 95.16 °W | Updated 55 minutes ago

Clear
Clear
77 °F
Feels Like 77 °F
N
12
Wind Variable Wind from ENE

Today
High -- | Low -- °F
--% Chance of Precip.
Yesterday
High -- | Low -- °F
Precip. -- in
7:26 AM 6:44 PM
Waning Crescent, 5% visible
Pressure 30.06 in
Visibility 10.0 miles
Clouds Clear
Dew Point 55 °F
Humidity 47%
Rainfall 0.00 in
Snow Depth Not available.
UV 7 out of 12
Pollen 6.30 out of 12
Ozone Good
PM2.5 Moderate
Flu Activity Sporadic
METAR KEFD 211750Z 07010KT 10SM CLR 25/13 A3006

More Conditions Fewer Conditions

Pressure 30.06 in
Visibility 10.0 miles
Clouds Clear
Dew Point 55 °F
Humidity 47%
Rainfall 0.00 in
Snow Depth Not available.
UV 7 out of 12
Pollen 6.30 out of 12
Ozone Good
PM2.5 Moderate
Flu Activity Sporadic
METAR KEFD 211750Z 07010KT 10SM CLR 25/13 A3006

More Conditions Fewer Conditions

10-Day Weather Forecast

Almanac

Astronomy

Oct. 21, 2014 Rise Set
Actual Time 7:26 AM CDT 6:44 PM CDT
Civil Twilight 7:02 AM CDT 7:08 PM CDT
Nautical Twilight 6:34 AM CDT 7:36 PM CDT
Astronomical Twilight 6:06 AM CDT 8:03 PM CDT
Moon 5:21 AM CDT 5:31 PM CDT
Length of Visible Light 12h 06m
Length of Day
11h 18m
Tomorrow will be 1m 38s shorter.
Waning Crescent, 5% of the Moon is Illuminated
Today
Waning Crescent
Oct 23
New
Oct 30
First Quarter
Nov 6
Full
Nov 14
Last Quarter

Today's Extremes

State Highs State Lows

Community

WunderPhotos

Upload Photos

1,763,742 photos uploaded!

Nearby

Air Quality

  Air Quality AQ Index Pollutant
Yesterday Moderate
OZONE
Yesterday Moderate
PM2.5
Current Moderate
PM2.5
Current Good
OZONE
Tuesday Moderate
OZONE
Tuesday Good
PM10
Wednesday Moderate
OZONE
Wednesday Good
PM10
Thursday Moderate
OZONE
Thursday Good
PM10
Friday Moderate
OZONE
Friday Good
PM10

Snow Depth

Station Depth Elevation
No new snow has been reported.

Earthquake Activity

City Distance Mag. Time & Date
No recent earthquake activity has been reported nearby.
Minimum magnitude displayed is 2.5.

Coastal Water Temperatures

Place Temperature
Eagle Point, TX 73.0 °F
USCG Freeport, TX 78.1 °F
Galveston Pier TX 78.1 °F
Galveston Bay (North Jetty), TX 75.9 °F
Rollover Pass, TX 75.0 °F

Nearby Weather Stations